createdAt,value
2024-01-12T00:01:31.423Z,35.20
2024-01-12T00:03:59.803Z,37.78
2024-01-12T00:06:28.437Z,35.40
2024-01-12T00:08:57.050Z,34.88
2024-01-12T00:11:25.524Z,34.78
2024-01-12T00:13:53.931Z,32.97
2024-01-12T00:16:23.688Z,33.63
2024-01-12T00:18:52.201Z,31.10
2024-01-12T00:21:22.053Z,30.98
2024-01-12T00:23:50.498Z,32.22
2024-01-12T00:26:18.921Z,32.45
2024-01-12T00:28:47.343Z,32.03
2024-01-12T00:31:15.912Z,31.60
2024-01-12T00:33:45.738Z,30.20
2024-01-12T00:36:14.164Z,28.55
2024-01-12T00:38:42.886Z,31.90
2024-01-12T00:41:11.374Z,31.35
2024-01-12T00:43:39.792Z,30.98
2024-01-12T00:46:08.128Z,32.00
2024-01-12T00:48:36.796Z,28.58
2024-01-12T00:51:07.081Z,30.63
2024-01-12T00:53:35.746Z,29.73
2024-01-12T00:56:04.397Z,32.08
2024-01-12T00:58:33.279Z,31.08
2024-01-12T01:01:01.862Z,27.75
2024-01-12T01:03:30.784Z,37.50
2024-01-12T01:05:59.300Z,33.58
2024-01-12T01:08:29.102Z,37.67
2024-01-12T01:10:57.565Z,31.98
2024-01-12T01:13:25.906Z,39.38
2024-01-12T01:15:54.327Z,36.80
2024-01-12T01:18:22.807Z,35.70
2024-01-12T01:20:51.422Z,34.30
2024-01-12T01:23:22.484Z,36.72
2024-01-12T01:25:52.726Z,29.27
2024-01-12T01:28:21.103Z,35.00
2024-01-12T01:30:49.643Z,33.30
2024-01-12T01:33:18.494Z,41.40
2024-01-12T01:35:47.203Z,32.72
2024-01-12T01:38:15.647Z,36.22
2024-01-12T01:40:44.511Z,32.97
2024-01-12T01:43:14.400Z,33.63
2024-01-12T01:45:42.837Z,31.35
2024-01-12T01:48:11.429Z,35.30
2024-01-12T01:50:39.939Z,33.63
2024-01-12T01:53:08.739Z,29.95
2024-01-12T01:55:37.276Z,32.70
2024-01-12T01:58:06.435Z,33.97
2024-01-12T02:00:36.691Z,29.60
2024-01-12T02:03:06.175Z,34.15
2024-01-12T02:05:37.160Z,34.28
2024-01-12T02:08:06.116Z,30.48
2024-01-12T02:10:35.091Z,30.73
2024-01-12T02:13:03.713Z,33.60
2024-01-12T02:15:32.155Z,33.80
2024-01-12T02:18:02.343Z,30.35
2024-01-12T02:20:30.923Z,28.67
2024-01-12T02:23:00.678Z,28.65
2024-01-12T02:25:29.151Z,30.27
2024-01-12T02:27:57.801Z,28.17
2024-01-12T02:30:26.219Z,30.10
2024-01-12T02:32:55.050Z,30.58
2024-01-12T02:35:23.526Z,33.22
2024-01-12T02:37:51.960Z,28.90
2024-01-12T02:40:21.777Z,28.85
2024-01-12T02:42:50.204Z,29.23
2024-01-12T02:45:18.696Z,29.83
2024-01-12T02:47:47.615Z,29.25
2024-01-12T02:50:16.124Z,27.60
2024-01-12T02:52:44.674Z,28.58
2024-01-12T02:55:13.109Z,29.58
2024-01-12T02:57:42.917Z,26.92
2024-01-12T03:00:12.805Z,29.25
2024-01-12T03:02:41.434Z,32.90
2024-01-12T03:05:10.334Z,31.75
2024-01-12T03:07:39.043Z,32.10
2024-01-12T03:10:08.059Z,32.42
2024-01-12T03:12:36.495Z,33.55
2024-01-12T03:15:07.203Z,30.67
2024-01-12T03:17:36.311Z,28.67
2024-01-12T03:20:06.306Z,34.05
2024-01-12T03:22:35.832Z,33.97
2024-01-12T03:25:04.643Z,31.35
2024-01-12T03:27:35.766Z,35.47
2024-01-12T03:30:04.509Z,32.15
2024-01-12T03:32:35.303Z,32.38
2024-01-12T03:35:04.793Z,31.00
2024-01-12T03:37:33.220Z,33.63
2024-01-12T03:40:01.570Z,31.90
2024-01-12T03:42:29.927Z,32.47
2024-01-12T03:44:58.421Z,31.38
2024-01-12T03:47:26.867Z,31.55
2024-01-12T03:49:56.952Z,30.58
2024-01-12T03:52:25.507Z,30.70
2024-01-12T03:54:53.918Z,29.27
2024-01-12T03:57:22.365Z,30.33
2024-01-12T03:59:50.812Z,31.00
2024-01-12T04:02:19.601Z,27.42
2024-01-12T04:04:48.137Z,30.30
2024-01-12T04:07:17.849Z,32.85
2024-01-12T04:09:46.215Z,33.55
2024-01-12T04:12:14.691Z,29.50
2024-01-12T04:17:09.456Z,28.30
2024-01-12T04:19:38.034Z,29.50
2024-01-12T04:22:06.541Z,31.67
2024-01-12T04:24:36.378Z,26.45
2024-01-12T04:27:04.966Z,25.17
2024-01-12T04:29:33.699Z,29.13
2024-01-12T04:32:02.071Z,29.63
2024-01-12T04:34:30.726Z,32.70
2024-01-12T04:36:59.182Z,29.30
2024-01-12T04:39:27.528Z,29.00
2024-01-12T04:41:57.877Z,28.45
2024-01-12T04:44:26.409Z,30.52
2024-01-12T04:46:54.866Z,24.30
2024-01-12T04:49:23.399Z,29.08
2024-01-12T04:51:52.110Z,27.90
2024-01-12T04:54:20.576Z,28.30
2024-01-12T04:56:49.097Z,28.80
2024-01-12T04:59:18.912Z,28.15
2024-01-12T05:01:48.008Z,29.40
2024-01-12T05:04:17.242Z,25.17
2024-01-12T05:06:45.808Z,25.48
2024-01-12T05:09:15.216Z,28.50
2024-01-12T05:11:43.842Z,26.02
2024-01-12T05:14:12.368Z,25.15
2024-01-12T05:16:42.816Z,27.55
2024-01-12T05:19:11.987Z,24.27
2024-01-12T05:21:40.532Z,25.70
2024-01-12T05:24:09.004Z,26.00
2024-01-12T05:26:37.820Z,25.25
2024-01-12T05:29:09.247Z,25.55
2024-01-12T05:31:37.858Z,29.95
2024-01-12T05:34:07.670Z,26.70
2024-01-12T05:36:36.208Z,26.75
2024-01-12T05:39:05.339Z,28.60
2024-01-12T05:41:34.259Z,26.25
2024-01-12T05:44:02.931Z,29.27
2024-01-12T05:46:31.381Z,27.42
2024-01-12T05:49:02.116Z,28.75
2024-01-12T05:51:32.116Z,27.65
2024-01-12T05:54:00.637Z,28.58
2024-01-12T05:56:29.161Z,28.20
2024-01-12T05:58:57.895Z,28.00
2024-01-12T06:01:26.292Z,26.88
2024-01-12T06:03:54.771Z,27.10
2024-01-12T06:06:23.448Z,28.13
2024-01-12T06:08:52.374Z,31.67
2024-01-12T06:11:20.861Z,28.02
2024-01-12T06:13:49.272Z,28.60
2024-01-12T06:16:18.040Z,27.38
2024-01-12T06:18:46.580Z,26.92
2024-01-12T06:21:15.120Z,25.75
2024-01-12T06:23:43.553Z,28.55
2024-01-12T06:26:13.344Z,27.88
2024-01-12T06:28:41.948Z,30.60
2024-01-12T06:31:10.433Z,27.98
2024-01-12T06:33:40.401Z,28.83
2024-01-12T06:36:09.802Z,31.17
2024-01-12T06:38:38.725Z,30.00
2024-01-12T06:41:07.223Z,33.20
2024-01-12T06:43:37.157Z,31.95
2024-01-12T06:46:06.369Z,30.77
2024-01-12T06:48:35.550Z,34.35
2024-01-12T06:51:04.192Z,29.98
2024-01-12T06:53:32.645Z,32.92
2024-01-12T06:56:01.309Z,28.23
2024-01-12T06:58:29.788Z,32.42
2024-01-12T07:01:00.221Z,28.90
2024-01-12T07:03:28.795Z,35.30
2024-01-12T07:05:59.408Z,38.78
2024-01-12T07:08:29.578Z,31.25
2024-01-12T07:10:58.146Z,36.72
2024-01-12T07:13:26.519Z,38.20
2024-01-12T07:15:55.038Z,35.92
2024-01-12T07:18:26.097Z,31.45
2024-01-12T07:20:56.428Z,35.30
2024-01-12T07:23:31.801Z,31.00
2024-01-12T07:26:01.178Z,30.83
2024-01-12T07:28:29.707Z,32.45
2024-01-12T07:30:58.204Z,26.17
2024-01-12T07:33:28.180Z,25.05
2024-01-12T07:35:56.958Z,29.13
2024-01-12T07:38:26.362Z,24.85
2024-01-12T07:40:54.874Z,29.25
2024-01-12T07:43:23.326Z,27.80
2024-01-12T07:45:51.797Z,28.15
2024-01-12T07:48:20.314Z,28.67
2024-01-12T07:50:50.184Z,25.27
2024-01-12T07:53:18.779Z,27.45
2024-01-12T07:55:47.903Z,26.70
2024-01-12T07:58:19.618Z,27.08
2024-01-12T08:00:49.110Z,29.02
2024-01-12T08:03:17.508Z,33.78
2024-01-12T08:05:46.753Z,28.23
2024-01-12T08:08:17.762Z,27.05
2024-01-12T08:10:47.964Z,29.08
2024-01-12T08:13:19.053Z,25.80
2024-01-12T08:15:47.774Z,30.25
2024-01-12T08:18:16.348Z,26.40
2024-01-12T08:20:45.403Z,28.38
2024-01-12T08:23:14.040Z,25.02
2024-01-12T08:25:43.929Z,27.50
2024-01-12T08:28:12.318Z,26.40
2024-01-12T08:30:40.784Z,26.88
2024-01-12T08:33:09.296Z,27.17
2024-01-12T08:35:38.093Z,28.55
2024-01-12T08:38:06.497Z,24.88
2024-01-12T08:40:35.011Z,27.13
2024-01-12T08:43:05.161Z,29.25
2024-01-12T08:45:33.632Z,26.58
2024-01-12T08:48:02.134Z,24.55
2024-01-12T08:50:31.498Z,23.08
2024-01-12T08:53:00.217Z,23.00
2024-01-12T08:55:28.587Z,24.40
2024-01-12T08:57:56.954Z,25.63
2024-01-12T09:00:26.786Z,23.90
2024-01-12T09:02:55.332Z,22.52
2024-01-12T09:05:24.046Z,22.83
2024-01-12T09:07:52.643Z,22.40
2024-01-12T09:10:21.108Z,21.83
2024-01-12T09:12:49.515Z,24.10
2024-01-12T09:15:17.988Z,22.88
2024-01-12T09:17:47.914Z,18.65
2024-01-12T09:20:16.942Z,17.13
2024-01-12T09:22:45.537Z,17.48
2024-01-12T09:25:14.021Z,19.55
2024-01-12T09:27:42.445Z,19.13
2024-01-12T09:30:11.508Z,20.15
2024-01-12T09:32:40.073Z,21.40
2024-01-12T09:35:10.445Z,17.23
2024-01-12T09:37:38.887Z,17.58
2024-01-12T09:40:08.476Z,19.13
2024-01-12T09:42:37.547Z,19.60
2024-01-12T09:45:08.841Z,20.65
2024-01-12T09:47:38.840Z,17.85
2024-01-12T09:50:08.969Z,20.80
2024-01-12T09:52:39.030Z,19.17
2024-01-12T09:55:08.779Z,19.17
2024-01-12T09:57:37.909Z,19.33
2024-01-12T10:00:10.433Z,18.17
2024-01-12T10:02:39.089Z,20.10
2024-01-12T10:05:09.224Z,19.55
2024-01-12T10:07:39.903Z,19.23
2024-01-12T10:10:09.488Z,18.42
2024-01-12T10:12:37.987Z,19.60
2024-01-12T10:15:10.849Z,17.73
2024-01-12T10:17:39.491Z,19.23
2024-01-12T10:20:10.863Z,19.50
2024-01-12T10:22:40.614Z,19.00
2024-01-12T10:25:10.070Z,18.85
2024-01-12T10:27:38.533Z,17.88
2024-01-12T10:30:10.680Z,18.63
2024-01-12T10:32:40.564Z,17.25
2024-01-12T10:35:10.679Z,19.17
2024-01-12T10:37:41.741Z,18.92
2024-01-12T10:40:13.197Z,17.73
2024-01-12T10:42:48.272Z,18.52
2024-01-12T10:45:22.409Z,17.27
2024-01-12T10:48:01.249Z,18.73
2024-01-12T10:50:35.254Z,17.70
2024-01-12T10:53:12.141Z,18.48
2024-01-12T10:55:43.680Z,17.15
2024-01-12T10:58:12.462Z,18.23
2024-01-12T11:00:42.907Z,20.23
2024-01-12T11:03:16.736Z,21.60
2024-01-12T11:05:46.352Z,20.20
2024-01-12T11:08:17.267Z,26.98
2024-01-12T11:10:51.761Z,24.30
2024-01-12T11:15:52.293Z,25.92
2024-01-12T11:18:21.825Z,25.38
2024-01-12T11:20:50.590Z,25.20
2024-01-12T11:23:20.479Z,27.13
2024-01-12T11:25:48.944Z,21.92
2024-01-12T11:28:17.324Z,28.50
2024-01-12T11:30:45.870Z,21.85
2024-01-12T11:33:18.964Z,23.25
2024-01-12T11:35:48.303Z,20.48
2024-01-12T11:38:21.679Z,24.08
2024-01-12T11:40:50.853Z,25.23
2024-01-12T11:43:19.972Z,21.13
2024-01-12T11:45:50.087Z,23.02
2024-01-12T11:48:18.716Z,26.73
2024-01-12T11:50:47.267Z,26.25
2024-01-12T11:53:16.017Z,21.25
2024-01-12T11:55:45.756Z,22.75
2024-01-12T11:58:14.283Z,27.90
2024-01-12T12:00:42.877Z,24.65
2024-01-12T12:03:11.558Z,22.00
2024-01-12T12:05:40.271Z,23.70
2024-01-12T12:08:10.042Z,23.00
2024-01-12T12:10:43.884Z,23.10
2024-01-12T12:13:17.134Z,23.88
2024-01-12T12:15:45.903Z,24.52
2024-01-12T12:18:15.134Z,25.85
2024-01-12T12:20:43.746Z,25.38
2024-01-12T12:23:12.166Z,37.78
2024-01-12T12:25:40.626Z,34.63
2024-01-12T12:28:09.298Z,33.13
2024-01-12T12:30:41.628Z,34.55
2024-01-12T12:33:10.690Z,33.17
2024-01-12T12:35:39.404Z,32.30
2024-01-12T12:38:08.704Z,33.08
2024-01-12T12:40:37.187Z,38.95
2024-01-12T12:43:06.023Z,28.67
2024-01-12T12:45:34.544Z,29.15
2024-01-12T12:48:06.102Z,29.02
2024-01-12T12:50:34.821Z,28.90
2024-01-12T12:53:03.669Z,32.03
2024-01-12T12:55:32.071Z,29.63
2024-01-12T12:58:00.486Z,27.60
2024-01-12T13:00:28.946Z,24.50
2024-01-12T13:02:57.962Z,34.58
2024-01-12T13:05:28.660Z,34.50
2024-01-12T13:07:57.152Z,26.05
2024-01-12T13:10:25.655Z,30.13
2024-01-12T13:12:54.177Z,28.33
2024-01-12T13:15:22.740Z,29.30
2024-01-12T13:17:51.188Z,46.35
2024-01-12T13:20:22.762Z,30.42
2024-01-12T13:22:52.689Z,28.27
2024-01-12T13:25:21.207Z,24.75
2024-01-12T13:27:49.673Z,34.38
2024-01-12T13:30:18.152Z,26.35
2024-01-12T13:32:46.724Z,27.23
2024-01-12T13:35:15.358Z,23.90
2024-01-12T13:37:44.023Z,25.58
2024-01-12T13:40:14.161Z,25.20
2024-01-12T13:42:42.753Z,27.23
2024-01-12T13:45:11.580Z,38.35
2024-01-12T13:47:40.499Z,35.22
2024-01-12T13:50:09.704Z,26.90
2024-01-12T13:52:38.232Z,27.80
2024-01-12T13:55:07.764Z,33.35
2024-01-12T13:57:37.495Z,26.63
2024-01-12T14:00:08.390Z,24.45
2024-01-12T14:02:44.555Z,26.05
2024-01-12T14:05:17.683Z,31.55
2024-01-12T14:07:47.278Z,25.10
2024-01-12T14:10:15.949Z,30.17
2024-01-12T14:12:45.798Z,31.25
2024-01-12T14:15:14.453Z,29.50
2024-01-12T14:17:43.066Z,30.83
2024-01-12T14:20:14.152Z,28.08
2024-01-12T14:22:42.794Z,37.67
2024-01-12T14:25:11.712Z,34.67
2024-01-12T14:27:41.303Z,44.40
2024-01-12T14:30:12.821Z,35.90
2024-01-12T14:32:41.881Z,50.35
2024-01-12T14:35:10.990Z,42.22
2024-01-12T14:37:39.527Z,37.65
2024-01-12T14:40:09.058Z,37.40
2024-01-12T14:42:37.730Z,41.63
2024-01-12T14:45:09.485Z,44.70
2024-01-12T14:47:40.802Z,47.05
2024-01-12T14:50:11.672Z,34.15
2024-01-12T14:52:41.129Z,43.08
2024-01-12T14:55:10.073Z,36.22
2024-01-12T14:57:40.442Z,33.83
2024-01-12T15:00:19.575Z,40.05
2024-01-12T15:02:52.569Z,39.72
2024-01-12T15:05:22.459Z,40.15
2024-01-12T15:07:53.714Z,44.88
2024-01-12T15:10:25.635Z,42.97
2024-01-12T15:12:58.358Z,39.13
2024-01-12T15:15:27.816Z,43.03
2024-01-12T15:17:57.781Z,38.83
2024-01-12T15:20:26.384Z,42.95
2024-01-12T15:23:05.032Z,41.22
2024-01-12T15:25:35.543Z,42.60
2024-01-12T15:28:04.154Z,45.28
2024-01-12T15:30:58.866Z,42.67
2024-01-12T15:33:32.060Z,44.63
2024-01-12T15:37:18.859Z,47.22
2024-01-12T15:39:50.932Z,42.75
2024-01-12T15:42:20.892Z,45.80
2024-01-12T15:45:10.344Z,38.47
2024-01-12T15:47:41.582Z,42.38
2024-01-12T15:50:11.947Z,41.90
2024-01-12T15:52:46.570Z,52.88
2024-01-12T15:55:15.259Z,45.90
2024-01-12T15:57:43.729Z,50.85
2024-01-12T16:00:19.796Z,48.05
2024-01-12T16:03:11.821Z,46.05
2024-01-12T16:05:55.168Z,57.75
2024-01-12T16:08:44.601Z,50.42
2024-01-12T16:11:27.268Z,53.30
2024-01-12T16:14:13.730Z,55.53
2024-01-12T16:16:43.938Z,50.92
2024-01-12T16:19:18.636Z,52.08
2024-01-12T16:21:56.708Z,49.00
2024-01-12T16:24:25.740Z,48.30
2024-01-12T16:26:56.599Z,50.72
2024-01-12T16:29:29.814Z,59.20
2024-01-12T16:31:58.685Z,50.88
2024-01-12T16:34:29.441Z,46.33
2024-01-12T16:36:59.503Z,45.53
2024-01-12T16:39:32.103Z,58.75
2024-01-12T16:42:04.898Z,54.55
2024-01-12T16:44:37.503Z,66.22
2024-01-12T16:47:20.507Z,55.92
2024-01-12T16:50:02.888Z,53.67
2024-01-12T16:52:40.429Z,51.60
2024-01-12T16:55:10.551Z,59.25
2024-01-12T16:57:40.490Z,60.25
2024-01-12T17:00:11.336Z,59.17
2024-01-12T17:02:41.786Z,47.88
2024-01-12T17:05:11.374Z,51.20
2024-01-12T17:07:41.313Z,56.60
2024-01-12T17:10:10.774Z,49.63
2024-01-12T17:12:40.924Z,57.45
2024-01-12T17:15:25.415Z,68.15
2024-01-12T17:17:55.623Z,72.40
2024-01-12T17:20:25.358Z,65.55
2024-01-12T17:22:57.974Z,56.53
2024-01-12T17:25:29.070Z,57.42
2024-01-12T17:27:58.036Z,50.85
2024-01-12T17:30:33.980Z,53.50
2024-01-12T17:33:07.863Z,55.17
2024-01-12T17:35:36.580Z,59.88
2024-01-12T17:38:08.012Z,58.45
2024-01-12T17:40:37.637Z,61.92
2024-01-12T17:43:06.183Z,66.28
2024-01-12T17:45:40.577Z,64.07
2024-01-12T17:48:12.648Z,64.95
2024-01-12T17:50:41.622Z,63.60
2024-01-12T17:53:11.462Z,66.50
2024-01-12T17:55:49.668Z,68.53
2024-01-12T17:58:18.300Z,87.03
2024-01-12T18:00:46.813Z,83.47
2024-01-12T18:03:15.360Z,77.40
2024-01-12T18:05:44.341Z,81.53
2024-01-12T18:08:14.336Z,89.28
2024-01-12T18:10:43.011Z,88.53
2024-01-12T18:13:11.578Z,95.43
2024-01-12T18:15:39.973Z,81.82
2024-01-12T18:18:08.576Z,74.28
2024-01-12T18:20:37.181Z,70.88
2024-01-12T18:23:06.104Z,72.68
2024-01-12T18:25:36.018Z,72.00
2024-01-12T18:28:04.852Z,67.60
2024-01-12T18:30:33.760Z,86.05
2024-01-12T18:33:05.135Z,81.43
2024-01-12T18:35:33.780Z,85.00
2024-01-12T18:38:02.443Z,78.93
2024-01-12T18:40:30.230Z,102.43
2024-01-12T18:43:00.157Z,101.25
2024-01-12T18:45:33.674Z,79.25
2024-01-12T18:48:02.278Z,99.30
2024-01-12T18:50:30.818Z,84.03
2024-01-12T18:52:59.235Z,150.40
2024-01-12T18:55:27.798Z,72.30
2024-01-12T18:57:56.249Z,84.35
2024-01-12T19:00:26.207Z,74.28
2024-01-12T19:02:54.988Z,87.90
2024-01-12T19:05:24.429Z,69.20
2024-01-12T19:07:53.275Z,67.05
2024-01-12T19:10:21.922Z,75.40
2024-01-12T19:12:53.681Z,62.08
2024-01-12T19:15:23.866Z,58.20
2024-01-12T19:17:54.890Z,56.83
2024-01-12T19:20:24.797Z,60.45
2024-01-12T19:22:53.634Z,60.40
2024-01-12T19:25:22.386Z,56.45
2024-01-12T19:27:50.882Z,61.05
2024-01-12T19:30:19.831Z,52.45
2024-01-12T19:33:14.311Z,67.63
2024-01-12T19:35:46.837Z,111.05
2024-01-12T19:38:19.755Z,81.05
2024-01-12T19:40:48.983Z,78.00
2024-01-12T19:43:17.958Z,54.42
2024-01-12T19:45:46.667Z,68.50
2024-01-12T19:48:16.044Z,66.13
2024-01-12T19:50:46.450Z,51.80
2024-01-12T19:53:19.157Z,67.90
2024-01-12T19:55:47.957Z,71.47
2024-01-12T19:58:17.309Z,52.08
2024-01-12T20:00:46.156Z,47.10
2024-01-12T20:03:14.947Z,47.80
2024-01-12T20:05:46.324Z,44.97
2024-01-12T20:08:14.965Z,63.20
2024-01-12T20:10:43.654Z,47.88
2024-01-12T20:13:12.134Z,50.05
2024-01-12T20:15:40.667Z,52.47
2024-01-12T20:18:09.480Z,57.42
2024-01-12T20:20:38.109Z,50.75
2024-01-12T20:23:07.999Z,70.43
2024-01-12T20:25:38.378Z,70.22
2024-01-12T20:28:09.171Z,52.13
2024-01-12T20:30:39.117Z,51.65
2024-01-12T20:33:08.014Z,48.80
2024-01-12T20:35:36.886Z,53.42
2024-01-12T20:38:07.148Z,46.28
2024-01-12T20:40:39.477Z,50.30
2024-01-12T20:43:07.985Z,59.22
2024-01-12T20:45:36.572Z,56.88
2024-01-12T20:48:05.746Z,47.65
2024-01-12T20:50:34.718Z,49.70
2024-01-12T20:53:03.817Z,44.30
2024-01-12T20:55:33.821Z,40.70
2024-01-12T20:58:02.221Z,39.20
2024-01-12T21:00:31.283Z,42.13
2024-01-12T21:02:59.981Z,37.17
2024-01-12T21:05:28.896Z,38.63
2024-01-12T21:07:57.980Z,37.60
2024-01-12T21:10:30.141Z,37.72
2024-01-12T21:13:00.625Z,39.08
2024-01-12T21:15:31.736Z,42.10
2024-01-12T21:18:01.452Z,36.50
2024-01-12T21:20:30.080Z,35.22
2024-01-12T21:23:00.660Z,43.33
2024-01-12T21:25:30.789Z,36.20
2024-01-12T21:28:00.940Z,38.20
2024-01-12T21:30:30.184Z,37.70
2024-01-12T21:33:01.757Z,37.60
2024-01-12T21:35:30.399Z,36.28
2024-01-12T21:37:59.152Z,37.47
2024-01-12T21:40:27.664Z,34.75
2024-01-12T21:42:57.366Z,36.85
2024-01-12T21:45:27.201Z,37.28
2024-01-12T21:47:55.749Z,27.95
2024-01-12T21:50:24.263Z,37.85
2024-01-12T21:52:52.668Z,31.60
2024-01-12T21:55:21.897Z,34.08
2024-01-12T21:57:50.522Z,31.58
2024-01-12T22:00:19.539Z,42.53
2024-01-12T22:02:49.839Z,31.88
2024-01-12T22:05:18.306Z,36.35
2024-01-12T22:07:46.722Z,31.27
2024-01-12T22:10:15.083Z,31.40
2024-01-12T22:12:43.442Z,36.65
2024-01-12T22:15:12.440Z,32.83
2024-01-12T22:17:41.154Z,33.42
2024-01-12T22:20:12.986Z,30.60
2024-01-12T22:22:41.651Z,32.33
2024-01-12T22:25:11.276Z,36.63
2024-01-12T22:27:43.273Z,33.00
2024-01-12T22:30:12.452Z,36.72
2024-01-12T22:32:43.208Z,29.90
2024-01-12T22:35:17.036Z,30.83
2024-01-12T22:37:46.391Z,30.30
2024-01-12T22:40:15.171Z,33.28
2024-01-12T22:42:43.665Z,28.00
2024-01-12T22:45:15.080Z,34.42
2024-01-12T22:47:46.538Z,31.02
2024-01-12T22:50:16.517Z,29.85
2024-01-12T22:52:45.549Z,29.60
2024-01-12T22:55:13.926Z,42.17
2024-01-12T22:57:42.539Z,33.55
2024-01-12T23:03:06.225Z,29.83
2024-01-12T23:05:37.229Z,30.38
2024-01-12T23:08:06.088Z,30.67
2024-01-12T23:10:34.747Z,35.28
2024-01-12T23:13:03.098Z,31.20
2024-01-12T23:15:32.769Z,31.00
2024-01-12T23:18:01.288Z,26.02
2024-01-12T23:20:34.131Z,24.75
2024-01-12T23:23:02.588Z,25.58
2024-01-12T23:25:31.069Z,25.48
2024-01-12T23:27:59.823Z,26.55
2024-01-12T23:30:28.657Z,27.45
2024-01-12T23:32:57.779Z,26.55
2024-01-12T23:35:26.588Z,24.02
2024-01-12T23:37:56.356Z,24.63
2024-01-12T23:40:24.737Z,21.70
2024-01-12T23:42:53.731Z,33.38
2024-01-12T23:45:22.414Z,31.00
2024-01-12T23:47:50.990Z,28.33
2024-01-12T23:50:19.677Z,25.20
2024-01-12T23:52:48.074Z,26.45
2024-01-12T23:55:19.482Z,26.75
2024-01-12T23:57:47.900Z,26.83
